This is the latest recevied weather packets stored in our database for station/object 2E0RGX-13. If no packets are shown the sender has not sent any weather packets the latest 1 day(s).
| Time | Temp. | Humidity | Pressure | Rain* | Wind** | Luminosity | Snow |
|---|---|---|---|---|---|---|---|
| 1836274721 | 15° C | 88% | 1009.3 hPa | 0 mm | 2.24 m/s, 255° | 0 W/m² | - |
| 1836274583 | 15° C | 88% | 1009.1 hPa | 0 mm | 1.34 m/s, 222° | 0 W/m² | - |
| 1836274415 | 15° C | 88% | 1009.5 hPa | 0 mm | 0.89 m/s, 240° | 0 W/m² | - |
| 1836274277 | 15° C | 88% | 1009.4 hPa | 0 mm | 1.79 m/s, 132° | 0 W/m² | - |
| 1836274108 | 15° C | 87% | 1009.4 hPa | 0 mm | 1.34 m/s, 245° | 0 W/m² | - |
| 1778064725 | 12.78° C | 61% | 1009.7 hPa | 0 mm | 0.89 m/s, 13° | 1 W/m² | - |
| 1778064422 | 12.22° C | 60% | 1010.2 hPa | 0 mm | 0.89 m/s, 325° | 2 W/m² | - |
| 1778064117 | 13.33° C | 57% | 1009.9 hPa | 0 mm | 2.68 m/s, 57° | 3 W/m² | - |
| 1778063813 | 12.78° C | 58% | 1009.9 hPa | 0 mm | 1.79 m/s, 259° | 5 W/m² | - |
| 1778063509 | 12.22° C | 59% | 1009.8 hPa | 0 mm | 1.79 m/s, 11° | 2 W/m² | - |
| 1778063205 | 12.22° C | 59% | 1009.8 hPa | 0 mm | 0.89 m/s, 29° | 5 W/m² | - |
| 1778062901 | 12.22° C | 58% | 1010.1 hPa | 0 mm | 1.79 m/s, 281° | 2 W/m² | - |
| 1778062597 | 11.67° C | 61% | 1009.9 hPa | 0 mm | 1.34 m/s, 316° | 5 W/m² | - |
| 1778062293 | 11.67° C | 60% | 1009.9 hPa | 0 mm | 1.34 m/s, 70° | 4 W/m² | - |
| 1778061989 | 11.67° C | 61% | 1009.8 hPa | 0 mm | 0.89 m/s, 258° | 3 W/m² | - |
| 1778061685 | 11.67° C | 62% | 1010 hPa | 0 mm | 2.68 m/s, 25° | 2 W/m² | - |
| 1778061381 | 11.67° C | 61% | 1010 hPa | 0 mm | 0 m/s | 3 W/m² | - |
| 1778061078 | 11.67° C | 60% | 1010 hPa | 0 mm | 0.45 m/s, 251° | 2 W/m² | - |
| 1778060774 | 11.67° C | 59% | 1010.1 hPa | 0 mm | 0.89 m/s, 273° | 3 W/m² | - |
| 1778060470 | 12.22° C | 60% | 1010.1 hPa | 0 mm | 0.89 m/s, 309° | 2 W/m² | - |
| 1778060166 | 12.22° C | 60% | 1010.1 hPa | 0 mm | 0.89 m/s, 233° | 5 W/m² | - |
| 1778059862 | 11.67° C | 60% | 1010 hPa | 0 mm | 3.58 m/s, 47° | 4 W/m² | - |
| 1778059558 | 11.67° C | 60% | 1010.1 hPa | 0 mm | 1.34 m/s, 9° | 4 W/m² | - |
| 1778059254 | 11.67° C | 59% | 1009.8 hPa | 0 mm | 0.89 m/s, 157° | 5 W/m² | - |
| 1778058950 | 11.67° C | 61% | 1009.8 hPa | 0 mm | 0.89 m/s, 175° | 4 W/m² | - |
* Rain latest hour (hover to see other rain measurements)
** Current wind speed in m/s (hover to see current wind gust speed)